sensor_id;sensor_type;location;lat;lon;timestamp;temperature;humidity
35445;DHT22;21562;49.476;6.086;2023-04-03T00:00:10;6.80;99.90
35445;DHT22;21562;49.476;6.086;2023-04-03T00:02:36;6.60;99.90
35445;DHT22;21562;49.476;6.086;2023-04-03T00:05:01;6.60;99.90
35445;DHT22;21562;49.476;6.086;2023-04-03T00:07:27;6.70;99.90
35445;DHT22;21562;49.476;6.086;2023-04-03T00:09:52;6.80;99.90
35445;DHT22;21562;49.476;6.086;2023-04-03T00:12:18;6.60;99.90
35445;DHT22;21562;49.476;6.086;2023-04-03T00:14:44;6.60;99.90
35445;DHT22;21562;49.476;6.086;2023-04-03T00:17:09;6.50;99.90
35445;DHT22;21562;49.476;6.086;2023-04-03T00:19:35;6.50;99.90
35445;DHT22;21562;49.476;6.086;2023-04-03T00:22:01;6.60;99.90
35445;DHT22;21562;49.476;6.086;2023-04-03T00:24:26;6.80;99.90
35445;DHT22;21562;49.476;6.086;2023-04-03T00:26:52;6.80;99.90
35445;DHT22;21562;49.476;6.086;2023-04-03T00:29:17;6.80;99.90
35445;DHT22;21562;49.476;6.086;2023-04-03T00:31:43;6.80;99.90
35445;DHT22;21562;49.476;6.086;2023-04-03T00:34:09;6.80;99.90
35445;DHT22;21562;49.476;6.086;2023-04-03T00:36:34;6.70;99.90
35445;DHT22;21562;49.476;6.086;2023-04-03T00:39:00;6.90;99.90
35445;DHT22;21562;49.476;6.086;2023-04-03T00:41:26;6.80;99.90
35445;DHT22;21562;49.476;6.086;2023-04-03T00:43:51;6.80;99.90
35445;DHT22;21562;49.476;6.086;2023-04-03T00:46:17;6.60;99.90
35445;DHT22;21562;49.476;6.086;2023-04-03T00:48:47;6.70;99.90
35445;DHT22;21562;49.476;6.086;2023-04-03T00:51:16;6.90;99.90
35445;DHT22;21562;49.476;6.086;2023-04-03T00:53:50;7.00;99.90
35445;DHT22;21562;49.476;6.086;2023-04-03T00:56:19;7.10;99.90
35445;DHT22;21562;49.476;6.086;2023-04-03T00:59:08;7.00;99.90
35445;DHT22;21562;49.476;6.086;2023-04-03T01:01:35;6.90;99.90
35445;DHT22;21562;49.476;6.086;2023-04-03T01:04:02;6.80;99.90
35445;DHT22;21562;49.476;6.086;2023-04-03T01:06:31;6.80;99.90
35445;DHT22;21562;49.476;6.086;2023-04-03T01:08:59;6.90;99.90
35445;DHT22;21562;49.476;6.086;2023-04-03T01:11:25;7.00;99.90
35445;DHT22;21562;49.476;6.086;2023-04-03T01:13:51;7.00;99.90
35445;DHT22;21562;49.476;6.086;2023-04-03T01:16:17;6.80;99.90
35445;DHT22;21562;49.476;6.086;2023-04-03T01:18:43;7.00;99.90
35445;DHT22;21562;49.476;6.086;2023-04-03T01:26:21;6.40;99.90
35445;DHT22;21562;49.476;6.086;2023-04-03T01:28:47;6.70;99.90
35445;DHT22;21562;49.476;6.086;2023-04-03T01:33:50;6.50;99.90
35445;DHT22;21562;49.476;6.086;2023-04-03T01:36:20;6.60;99.90
35445;DHT22;21562;49.476;6.086;2023-04-03T01:38:46;6.50;99.90
35445;DHT22;21562;49.476;6.086;2023-04-03T01:41:12;6.40;99.90
35445;DHT22;21562;49.476;6.086;2023-04-03T01:43:38;6.40;99.90
35445;DHT22;21562;49.476;6.086;2023-04-03T01:46:03;6.50;99.90
35445;DHT22;21562;49.476;6.086;2023-04-03T01:48:29;6.60;99.90
35445;DHT22;21562;49.476;6.086;2023-04-03T01:50:55;6.40;99.90
35445;DHT22;21562;49.476;6.086;2023-04-03T01:53:20;6.20;99.90
35445;DHT22;21562;49.476;6.086;2023-04-03T01:55:46;6.00;99.90
35445;DHT22;21562;49.476;6.086;2023-04-03T01:58:12;6.00;99.90
35445;DHT22;21562;49.476;6.086;2023-04-03T02:00:37;6.10;99.90
35445;DHT22;21562;49.476;6.086;2023-04-03T02:03:03;6.00;99.90
35445;DHT22;21562;49.476;6.086;2023-04-03T02:05:29;6.00;99.90
35445;DHT22;21562;49.476;6.086;2023-04-03T02:07:54;5.90;99.90
35445;DHT22;21562;49.476;6.086;2023-04-03T02:10:20;6.00;99.90
35445;DHT22;21562;49.476;6.086;2023-04-03T02:12:46;6.10;99.90
35445;DHT22;21562;49.476;6.086;2023-04-03T02:15:11;5.90;99.90
35445;DHT22;21562;49.476;6.086;2023-04-03T02:17:37;6.00;99.90
35445;DHT22;21562;49.476;6.086;2023-04-03T02:20:04;5.90;99.90
35445;DHT22;21562;49.476;6.086;2023-04-03T02:22:30;6.10;99.90
35445;DHT22;21562;49.476;6.086;2023-04-03T02:24:55;6.10;99.90
35445;DHT22;21562;49.476;6.086;2023-04-03T02:27:21;6.00;99.90
35445;DHT22;21562;49.476;6.086;2023-04-03T02:29:47;5.70;99.90
35445;DHT22;21562;49.476;6.086;2023-04-03T02:32:12;6.00;99.90
35445;DHT22;21562;49.476;6.086;2023-04-03T02:34:38;6.10;99.90
35445;DHT22;21562;49.476;6.086;2023-04-03T02:37:03;6.20;99.90
35445;DHT22;21562;49.476;6.086;2023-04-03T02:39:29;6.40;99.90
35445;DHT22;21562;49.476;6.086;2023-04-03T02:41:55;6.60;99.90
35445;DHT22;21562;49.476;6.086;2023-04-03T02:44:21;6.60;99.90
35445;DHT22;21562;49.476;6.086;2023-04-03T02:46:46;6.80;99.90
35445;DHT22;21562;49.476;6.086;2023-04-03T02:49:12;6.70;99.90
35445;DHT22;21562;49.476;6.086;2023-04-03T02:51:37;6.80;99.90
35445;DHT22;21562;49.476;6.086;2023-04-03T02:54:03;6.70;99.90
35445;DHT22;21562;49.476;6.086;2023-04-03T02:56:29;6.80;99.90
35445;DHT22;21562;49.476;6.086;2023-04-03T02:58:54;6.80;99.90
35445;DHT22;21562;49.476;6.086;2023-04-03T03:01:20;7.00;99.90
35445;DHT22;21562;49.476;6.086;2023-04-03T03:03:46;6.70;99.90
35445;DHT22;21562;49.476;6.086;2023-04-03T03:06:16;6.90;99.90
35445;DHT22;21562;49.476;6.086;2023-04-03T03:08:42;7.00;99.90
35445;DHT22;21562;49.476;6.086;2023-04-03T03:11:09;7.00;99.90
35445;DHT22;21562;49.476;6.086;2023-04-03T03:13:35;7.10;99.90
35445;DHT22;21562;49.476;6.086;2023-04-03T03:16:01;7.20;99.90
35445;DHT22;21562;49.476;6.086;2023-04-03T03:18:27;7.40;99.90
35445;DHT22;21562;49.476;6.086;2023-04-03T03:20:54;7.40;99.90
35445;DHT22;21562;49.476;6.086;2023-04-03T03:23:22;7.40;99.90
35445;DHT22;21562;49.476;6.086;2023-04-03T03:25:48;7.50;99.90
35445;DHT22;21562;49.476;6.086;2023-04-03T03:28:14;7.50;99.90
35445;DHT22;21562;49.476;6.086;2023-04-03T03:30:40;7.60;99.90
35445;DHT22;21562;49.476;6.086;2023-04-03T03:33:05;7.70;99.90
35445;DHT22;21562;49.476;6.086;2023-04-03T03:35:31;7.70;99.90
35445;DHT22;21562;49.476;6.086;2023-04-03T03:37:56;7.70;99.90
35445;DHT22;21562;49.476;6.086;2023-04-03T03:40:22;7.70;99.90
35445;DHT22;21562;49.476;6.086;2023-04-03T03:42:48;7.60;99.90
35445;DHT22;21562;49.476;6.086;2023-04-03T03:45:13;7.80;99.90
35445;DHT22;21562;49.476;6.086;2023-04-03T03:47:39;7.80;99.90
35445;DHT22;21562;49.476;6.086;2023-04-03T03:50:05;7.80;99.90
35445;DHT22;21562;49.476;6.086;2023-04-03T03:52:31;7.90;99.90
35445;DHT22;21562;49.476;6.086;2023-04-03T03:54:57;7.80;99.90
35445;DHT22;21562;49.476;6.086;2023-04-03T03:57:22;7.70;99.90
35445;DHT22;21562;49.476;6.086;2023-04-03T03:59:48;7.50;99.90
35445;DHT22;21562;49.476;6.086;2023-04-03T04:02:14;7.40;99.90
35445;DHT22;21562;49.476;6.086;2023-04-03T04:04:40;7.40;99.90
35445;DHT22;21562;49.476;6.086;2023-04-03T04:07:06;7.20;99.90
35445;DHT22;21562;49.476;6.086;2023-04-03T04:09:31;7.20;99.90
35445;DHT22;21562;49.476;6.086;2023-04-03T04:11:57;7.20;99.90
35445;DHT22;21562;49.476;6.086;2023-04-03T04:14:23;7.20;99.90
35445;DHT22;21562;49.476;6.086;2023-04-03T04:16:49;7.20;99.90
35445;DHT22;21562;49.476;6.086;2023-04-03T04:19:14;7.20;99.90
35445;DHT22;21562;49.476;6.086;2023-04-03T04:21:40;7.20;99.90
35445;DHT22;21562;49.476;6.086;2023-04-03T04:24:07;7.10;99.90
35445;DHT22;21562;49.476;6.086;2023-04-03T04:26:33;6.90;99.90
35445;DHT22;21562;49.476;6.086;2023-04-03T04:28:58;6.90;99.90
35445;DHT22;21562;49.476;6.086;2023-04-03T04:31:24;7.00;99.90
35445;DHT22;21562;49.476;6.086;2023-04-03T04:33:50;6.90;99.90
35445;DHT22;21562;49.476;6.086;2023-04-03T04:36:15;6.70;99.90
35445;DHT22;21562;49.476;6.086;2023-04-03T04:38:41;6.60;99.90
35445;DHT22;21562;49.476;6.086;2023-04-03T04:41:07;6.60;99.90
35445;DHT22;21562;49.476;6.086;2023-04-03T04:43:33;6.70;99.90
35445;DHT22;21562;49.476;6.086;2023-04-03T04:46:07;6.90;99.90
35445;DHT22;21562;49.476;6.086;2023-04-03T04:48:33;6.90;99.90
35445;DHT22;21562;49.476;6.086;2023-04-03T04:50:59;7.10;99.90
35445;DHT22;21562;49.476;6.086;2023-04-03T04:53:24;7.10;99.90
35445;DHT22;21562;49.476;6.086;2023-04-03T04:55:50;7.10;99.90
35445;DHT22;21562;49.476;6.086;2023-04-03T04:58:17;7.20;99.90
35445;DHT22;21562;49.476;6.086;2023-04-03T05:00:42;7.10;99.90
35445;DHT22;21562;49.476;6.086;2023-04-03T05:03:08;7.00;99.90
35445;DHT22;21562;49.476;6.086;2023-04-03T05:05:34;7.10;99.90
35445;DHT22;21562;49.476;6.086;2023-04-03T05:08:01;7.10;99.90
35445;DHT22;21562;49.476;6.086;2023-04-03T05:10:27;7.00;99.90
35445;DHT22;21562;49.476;6.086;2023-04-03T05:12:53;7.00;99.90
35445;DHT22;21562;49.476;6.086;2023-04-03T05:15:18;6.90;99.90
35445;DHT22;21562;49.476;6.086;2023-04-03T05:17:44;6.70;99.90
35445;DHT22;21562;49.476;6.086;2023-04-03T05:20:10;6.60;99.90
35445;DHT22;21562;49.476;6.086;2023-04-03T05:22:36;6.50;99.90
35445;DHT22;21562;49.476;6.086;2023-04-03T05:25:02;6.50;99.90
35445;DHT22;21562;49.476;6.086;2023-04-03T05:27:28;6.50;99.90
35445;DHT22;21562;49.476;6.086;2023-04-03T05:29:54;6.50;99.90
35445;DHT22;21562;49.476;6.086;2023-04-03T05:32:21;6.60;99.90
35445;DHT22;21562;49.476;6.086;2023-04-03T05:34:46;6.60;99.90
35445;DHT22;21562;49.476;6.086;2023-04-03T05:37:12;6.60;99.90
35445;DHT22;21562;49.476;6.086;2023-04-03T05:39:37;6.60;99.90
35445;DHT22;21562;49.476;6.086;2023-04-03T05:42:06;6.40;99.90
35445;DHT22;21562;49.476;6.086;2023-04-03T05:44:31;6.40;99.90
35445;DHT22;21562;49.476;6.086;2023-04-03T05:46:57;6.40;99.90
35445;DHT22;21562;49.476;6.086;2023-04-03T05:49:22;6.50;99.90
35445;DHT22;21562;49.476;6.086;2023-04-03T05:51:48;6.50;99.90
35445;DHT22;21562;49.476;6.086;2023-04-03T05:54:20;6.50;99.90
35445;DHT22;21562;49.476;6.086;2023-04-03T05:56:49;6.60;99.90
35445;DHT22;21562;49.476;6.086;2023-04-03T05:59:15;6.60;99.90
35445;DHT22;21562;49.476;6.086;2023-04-03T06:01:40;6.50;99.90
35445;DHT22;21562;49.476;6.086;2023-04-03T06:04:06;6.50;99.90
35445;DHT22;21562;49.476;6.086;2023-04-03T06:07:03;6.50;99.90
35445;DHT22;21562;49.476;6.086;2023-04-03T06:09:29;5.90;99.90
35445;DHT22;21562;49.476;6.086;2023-04-03T06:11:55;5.70;99.90
35445;DHT22;21562;49.476;6.086;2023-04-03T06:14:21;5.80;99.90
35445;DHT22;21562;49.476;6.086;2023-04-03T06:16:47;5.90;99.90
35445;DHT22;21562;49.476;6.086;2023-04-03T06:19:13;5.90;99.90
35445;DHT22;21562;49.476;6.086;2023-04-03T06:21:38;5.60;99.90
35445;DHT22;21562;49.476;6.086;2023-04-03T06:24:05;5.70;99.90
35445;DHT22;21562;49.476;6.086;2023-04-03T06:26:31;5.60;99.90
35445;DHT22;21562;49.476;6.086;2023-04-03T06:28:57;5.60;99.90
35445;DHT22;21562;49.476;6.086;2023-04-03T06:31:23;5.80;99.90
35445;DHT22;21562;49.476;6.086;2023-04-03T06:33:49;5.80;99.90
35445;DHT22;21562;49.476;6.086;2023-04-03T06:36:15;6.10;99.90
35445;DHT22;21562;49.476;6.086;2023-04-03T06:38:45;6.20;99.90
35445;DHT22;21562;49.476;6.086;2023-04-03T06:41:11;6.20;99.90
35445;DHT22;21562;49.476;6.086;2023-04-03T06:43:36;6.20;99.90
35445;DHT22;21562;49.476;6.086;2023-04-03T06:46:02;6.00;99.90
35445;DHT22;21562;49.476;6.086;2023-04-03T06:48:28;5.70;99.90
35445;DHT22;21562;49.476;6.086;2023-04-03T06:50:54;5.70;99.90
35445;DHT22;21562;49.476;6.086;2023-04-03T06:53:20;5.70;99.90
35445;DHT22;21562;49.476;6.086;2023-04-03T06:55:46;5.50;99.90
35445;DHT22;21562;49.476;6.086;2023-04-03T06:58:12;5.70;99.90
35445;DHT22;21562;49.476;6.086;2023-04-03T07:00:39;5.70;99.90
35445;DHT22;21562;49.476;6.086;2023-04-03T07:03:04;5.90;99.90
35445;DHT22;21562;49.476;6.086;2023-04-03T07:05:30;5.90;99.90
35445;DHT22;21562;49.476;6.086;2023-04-03T07:07:56;6.10;99.90
35445;DHT22;21562;49.476;6.086;2023-04-03T07:10:22;6.30;99.90
35445;DHT22;21562;49.476;6.086;2023-04-03T07:12:47;6.20;99.90
35445;DHT22;21562;49.476;6.086;2023-04-03T07:15:13;6.40;99.90
35445;DHT22;21562;49.476;6.086;2023-04-03T07:17:39;6.50;99.90
35445;DHT22;21562;49.476;6.086;2023-04-03T07:20:06;6.50;99.90
35445;DHT22;21562;49.476;6.086;2023-04-03T07:22:32;6.60;99.90
35445;DHT22;21562;49.476;6.086;2023-04-03T07:24:58;6.50;99.90
35445;DHT22;21562;49.476;6.086;2023-04-03T07:27:24;6.20;99.90
35445;DHT22;21562;49.476;6.086;2023-04-03T07:29:50;6.20;99.90
35445;DHT22;21562;49.476;6.086;2023-04-03T07:32:16;6.20;99.90
35445;DHT22;21562;49.476;6.086;2023-04-03T07:34:43;6.30;99.90
35445;DHT22;21562;49.476;6.086;2023-04-03T07:37:09;6.20;99.90
35445;DHT22;21562;49.476;6.086;2023-04-03T07:39:35;6.30;99.90
35445;DHT22;21562;49.476;6.086;2023-04-03T07:42:01;6.50;99.90
35445;DHT22;21562;49.476;6.086;2023-04-03T07:44:27;6.50;99.90
35445;DHT22;21562;49.476;6.086;2023-04-03T07:46:53;6.50;99.90
35445;DHT22;21562;49.476;6.086;2023-04-03T07:49:20;6.40;99.90
35445;DHT22;21562;49.476;6.086;2023-04-03T07:51:48;6.40;99.90
35445;DHT22;21562;49.476;6.086;2023-04-03T07:54:14;6.30;99.90
35445;DHT22;21562;49.476;6.086;2023-04-03T07:56:40;6.30;99.90
35445;DHT22;21562;49.476;6.086;2023-04-03T07:59:08;6.40;99.90
35445;DHT22;21562;49.476;6.086;2023-04-03T08:01:34;6.40;99.90
35445;DHT22;21562;49.476;6.086;2023-04-03T08:03:59;6.60;99.90
35445;DHT22;21562;49.476;6.086;2023-04-03T08:06:25;6.60;99.90
35445;DHT22;21562;49.476;6.086;2023-04-03T08:08:51;6.50;99.90
35445;DHT22;21562;49.476;6.086;2023-04-03T08:11:17;6.60;99.90
35445;DHT22;21562;49.476;6.086;2023-04-03T08:13:44;6.60;99.90
35445;DHT22;21562;49.476;6.086;2023-04-03T08:16:16;6.80;99.90
35445;DHT22;21562;49.476;6.086;2023-04-03T08:18:42;6.90;99.90
35445;DHT22;21562;49.476;6.086;2023-04-03T08:21:09;6.80;99.90
35445;DHT22;21562;49.476;6.086;2023-04-03T08:23:36;6.90;99.90
35445;DHT22;21562;49.476;6.086;2023-04-03T08:26:14;7.20;99.90
35445;DHT22;21562;49.476;6.086;2023-04-03T08:28:41;7.20;99.90
35445;DHT22;21562;49.476;6.086;2023-04-03T08:31:09;7.30;99.90
35445;DHT22;21562;49.476;6.086;2023-04-03T08:33:37;7.30;99.90
35445;DHT22;21562;49.476;6.086;2023-04-03T08:36:07;7.20;99.90
35445;DHT22;21562;49.476;6.086;2023-04-03T08:38:33;7.20;99.90
35445;DHT22;21562;49.476;6.086;2023-04-03T08:41:20;7.50;99.90
35445;DHT22;21562;49.476;6.086;2023-04-03T08:45:15;7.30;99.90
35445;DHT22;21562;49.476;6.086;2023-04-03T08:47:46;7.40;99.90
35445;DHT22;21562;49.476;6.086;2023-04-03T08:50:17;7.40;99.90
35445;DHT22;21562;49.476;6.086;2023-04-03T08:52:56;7.60;99.90
35445;DHT22;21562;49.476;6.086;2023-04-03T08:55:29;7.70;99.90
35445;DHT22;21562;49.476;6.086;2023-04-03T08:58:10;7.60;99.90
35445;DHT22;21562;49.476;6.086;2023-04-03T09:00:54;7.70;99.90
35445;DHT22;21562;49.476;6.086;2023-04-03T09:03:22;7.70;99.90
35445;DHT22;21562;49.476;6.086;2023-04-03T09:06:02;7.70;99.90
35445;DHT22;21562;49.476;6.086;2023-04-03T09:08:31;7.50;99.90
35445;DHT22;21562;49.476;6.086;2023-04-03T09:11:35;7.60;99.90
35445;DHT22;21562;49.476;6.086;2023-04-03T09:14:12;7.50;99.90
35445;DHT22;21562;49.476;6.086;2023-04-03T09:16:56;7.50;99.90
35445;DHT22;21562;49.476;6.086;2023-04-03T09:22:26;7.50;99.90
35445;DHT22;21562;49.476;6.086;2023-04-03T09:27:26;7.60;99.90
35445;DHT22;21562;49.476;6.086;2023-04-03T09:29:54;7.70;99.90
35445;DHT22;21562;49.476;6.086;2023-04-03T09:32:30;7.90;99.90
35445;DHT22;21562;49.476;6.086;2023-04-03T09:35:01;8.00;99.90
35445;DHT22;21562;49.476;6.086;2023-04-03T09:37:36;8.10;99.90
35445;DHT22;21562;49.476;6.086;2023-04-03T09:40:02;8.40;99.90
35445;DHT22;21562;49.476;6.086;2023-04-03T09:42:30;8.40;99.90
35445;DHT22;21562;49.476;6.086;2023-04-03T09:45:18;8.50;99.90
35445;DHT22;21562;49.476;6.086;2023-04-03T09:47:45;8.70;99.90
35445;DHT22;21562;49.476;6.086;2023-04-03T09:52:44;8.50;99.90
35445;DHT22;21562;49.476;6.086;2023-04-03T09:55:18;8.50;99.90
35445;DHT22;21562;49.476;6.086;2023-04-03T09:57:45;8.60;99.90
35445;DHT22;21562;49.476;6.086;2023-04-03T10:00:28;8.80;99.90
35445;DHT22;21562;49.476;6.086;2023-04-03T10:02:57;8.70;99.90
35445;DHT22;21562;49.476;6.086;2023-04-03T10:08:14;8.90;99.90
35445;DHT22;21562;49.476;6.086;2023-04-03T10:10:47;8.90;99.90
35445;DHT22;21562;49.476;6.086;2023-04-03T10:13:18;9.20;99.90
35445;DHT22;21562;49.476;6.086;2023-04-03T10:18:29;9.90;99.90
35445;DHT22;21562;49.476;6.086;2023-04-03T10:21:02;10.10;99.90
35445;DHT22;21562;49.476;6.086;2023-04-03T10:23:47;10.10;99.90
35445;DHT22;21562;49.476;6.086;2023-04-03T10:34:43;10.40;99.90
35445;DHT22;21562;49.476;6.086;2023-04-03T10:37:23;10.10;99.90
35445;DHT22;21562;49.476;6.086;2023-04-03T10:43:03;9.90;99.90
35445;DHT22;21562;49.476;6.086;2023-04-03T10:53:35;9.50;99.90
35445;DHT22;21562;49.476;6.086;2023-04-03T10:58:43;9.60;99.90
35445;DHT22;21562;49.476;6.086;2023-04-03T11:01:23;9.50;99.90
35445;DHT22;21562;49.476;6.086;2023-04-03T11:03:59;9.60;99.90
35445;DHT22;21562;49.476;6.086;2023-04-03T11:06:32;9.70;99.90
35445;DHT22;21562;49.476;6.086;2023-04-03T11:09:05;10.00;99.90
35445;DHT22;21562;49.476;6.086;2023-04-03T11:11:35;10.20;99.90
35445;DHT22;21562;49.476;6.086;2023-04-03T11:16:48;10.80;99.00
35445;DHT22;21562;49.476;6.086;2023-04-03T11:19:22;11.20;98.80
35445;DHT22;21562;49.476;6.086;2023-04-03T11:22:04;11.30;99.80
35445;DHT22;21562;49.476;6.086;2023-04-03T11:24:36;11.70;98.10
35445;DHT22;21562;49.476;6.086;2023-04-03T11:27:04;11.90;97.90
35445;DHT22;21562;49.476;6.086;2023-04-03T11:29:36;11.90;97.20
35445;DHT22;21562;49.476;6.086;2023-04-03T11:34:50;10.80;97.30
35445;DHT22;21562;49.476;6.086;2023-04-03T11:37:30;10.70;97.70
35445;DHT22;21562;49.476;6.086;2023-04-03T11:40:04;10.80;97.70
35445;DHT22;21562;49.476;6.086;2023-04-03T11:42:37;11.20;97.00
35445;DHT22;21562;49.476;6.086;2023-04-03T11:48:03;11.80;96.60
35445;DHT22;21562;49.476;6.086;2023-04-03T11:50:41;12.30;96.30
35445;DHT22;21562;49.476;6.086;2023-04-03T12:37:48;13.60;92.50
35445;DHT22;21562;49.476;6.086;2023-04-03T12:40:31;13.60;92.10
35445;DHT22;21562;49.476;6.086;2023-04-03T12:48:49;13.20;92.80
35445;DHT22;21562;49.476;6.086;2023-04-03T12:51:22;13.30;91.60
35445;DHT22;21562;49.476;6.086;2023-04-03T12:54:02;13.10;91.50
35445;DHT22;21562;49.476;6.086;2023-04-03T12:56:31;12.80;92.90
35445;DHT22;21562;49.476;6.086;2023-04-03T12:59:21;12.90;92.90
35445;DHT22;21562;49.476;6.086;2023-04-03T13:01:54;13.70;91.80
35445;DHT22;21562;49.476;6.086;2023-04-03T13:04:20;14.00;91.60
35445;DHT22;21562;49.476;6.086;2023-04-03T13:06:46;14.00;91.90
35445;DHT22;21562;49.476;6.086;2023-04-03T13:09:26;13.90;91.40
35445;DHT22;21562;49.476;6.086;2023-04-03T13:12:14;13.70;89.30
35445;DHT22;21562;49.476;6.086;2023-04-03T13:14:40;13.80;90.70
35445;DHT22;21562;49.476;6.086;2023-04-03T13:17:16;14.00;90.70
35445;DHT22;21562;49.476;6.086;2023-04-03T13:19:44;13.90;90.70
35445;DHT22;21562;49.476;6.086;2023-04-03T13:22:33;14.00;91.30
35445;DHT22;21562;49.476;6.086;2023-04-03T13:25:07;14.20;90.60
35445;DHT22;21562;49.476;6.086;2023-04-03T13:27:34;14.40;90.30
35445;DHT22;21562;49.476;6.086;2023-04-03T13:30:02;14.90;90.40
35445;DHT22;21562;49.476;6.086;2023-04-03T13:32:31;14.50;90.20
35445;DHT22;21562;49.476;6.086;2023-04-03T13:34:57;14.50;90.10
35445;DHT22;21562;49.476;6.086;2023-04-03T13:37:28;14.00;89.70
35445;DHT22;21562;49.476;6.086;2023-04-03T13:40:08;14.00;90.50
35445;DHT22;21562;49.476;6.086;2023-04-03T13:42:38;14.20;90.30
35445;DHT22;21562;49.476;6.086;2023-04-03T13:45:22;14.40;90.70
35445;DHT22;21562;49.476;6.086;2023-04-03T13:47:50;14.60;90.60
35445;DHT22;21562;49.476;6.086;2023-04-03T13:50:23;14.30;89.70
35445;DHT22;21562;49.476;6.086;2023-04-03T13:55:26;14.40;90.30
35445;DHT22;21562;49.476;6.086;2023-04-03T13:57:54;14.20;89.10
35445;DHT22;21562;49.476;6.086;2023-04-03T14:02:55;13.70;90.40
35445;DHT22;21562;49.476;6.086;2023-04-03T14:05:22;13.40;90.10
35445;DHT22;21562;49.476;6.086;2023-04-03T14:07:49;13.40;91.10
35445;DHT22;21562;49.476;6.086;2023-04-03T14:10:16;13.70;90.60
35445;DHT22;21562;49.476;6.086;2023-04-03T14:12:42;14.20;90.10
35445;DHT22;21562;49.476;6.086;2023-04-03T14:15:21;14.60;89.80
35445;DHT22;21562;49.476;6.086;2023-04-03T14:17:50;13.80;90.20
35445;DHT22;21562;49.476;6.086;2023-04-03T14:20:19;14.00;89.10
35445;DHT22;21562;49.476;6.086;2023-04-03T14:22:46;13.90;90.10
35445;DHT22;21562;49.476;6.086;2023-04-03T14:25:12;14.50;89.50
35445;DHT22;21562;49.476;6.086;2023-04-03T14:27:43;15.20;88.60
35445;DHT22;21562;49.476;6.086;2023-04-03T14:30:18;15.40;88.50
35445;DHT22;21562;49.476;6.086;2023-04-03T14:32:45;15.60;86.90
35445;DHT22;21562;49.476;6.086;2023-04-03T14:35:12;15.70;87.20
35445;DHT22;21562;49.476;6.086;2023-04-03T14:37:37;16.10;85.10
35445;DHT22;21562;49.476;6.086;2023-04-03T14:40:06;15.90;85.90
35445;DHT22;21562;49.476;6.086;2023-04-03T14:42:34;16.20;84.20
35445;DHT22;21562;49.476;6.086;2023-04-03T14:45:02;15.10;84.70
35445;DHT22;21562;49.476;6.086;2023-04-03T14:47:29;14.40;85.60
35445;DHT22;21562;49.476;6.086;2023-04-03T14:49:55;14.50;87.40
35445;DHT22;21562;49.476;6.086;2023-04-03T14:52:30;14.70;87.40
35445;DHT22;21562;49.476;6.086;2023-04-03T14:54:57;15.10;86.30
35445;DHT22;21562;49.476;6.086;2023-04-03T14:57:27;14.80;85.60
35445;DHT22;21562;49.476;6.086;2023-04-03T14:59:53;14.30;83.60
35445;DHT22;21562;49.476;6.086;2023-04-03T15:04:54;13.70;88.20
35445;DHT22;21562;49.476;6.086;2023-04-03T15:07:19;13.90;86.80
35445;DHT22;21562;49.476;6.086;2023-04-03T15:09:45;13.70;87.20
35445;DHT22;21562;49.476;6.086;2023-04-03T15:12:11;14.20;87.40
35445;DHT22;21562;49.476;6.086;2023-04-03T15:14:37;14.20;87.00
35445;DHT22;21562;49.476;6.086;2023-04-03T15:17:08;14.10;86.80
35445;DHT22;21562;49.476;6.086;2023-04-03T15:19:37;13.90;87.00
35445;DHT22;21562;49.476;6.086;2023-04-03T15:22:04;14.10;86.90
35445;DHT22;21562;49.476;6.086;2023-04-03T15:24:29;14.20;87.50
35445;DHT22;21562;49.476;6.086;2023-04-03T15:26:55;13.70;85.80
35445;DHT22;21562;49.476;6.086;2023-04-03T15:29:21;13.20;87.20
35445;DHT22;21562;49.476;6.086;2023-04-03T15:31:46;13.20;88.50
35445;DHT22;21562;49.476;6.086;2023-04-03T15:34:12;13.50;87.60
35445;DHT22;21562;49.476;6.086;2023-04-03T15:36:38;13.10;88.20
35445;DHT22;21562;49.476;6.086;2023-04-03T15:39:04;12.50;88.20
35445;DHT22;21562;49.476;6.086;2023-04-03T15:41:29;12.50;88.90
35445;DHT22;21562;49.476;6.086;2023-04-03T15:43:55;12.80;90.00
35445;DHT22;21562;49.476;6.086;2023-04-03T15:46:20;13.10;87.80
35445;DHT22;21562;49.476;6.086;2023-04-03T15:48:46;13.40;88.40
35445;DHT22;21562;49.476;6.086;2023-04-03T15:51:12;13.60;86.10
35445;DHT22;21562;49.476;6.086;2023-04-03T15:53:37;13.30;85.80
35445;DHT22;21562;49.476;6.086;2023-04-03T15:56:03;13.20;87.00
35445;DHT22;21562;49.476;6.086;2023-04-03T15:58:30;12.90;86.20
35445;DHT22;21562;49.476;6.086;2023-04-03T16:00:56;12.60;86.80
35445;DHT22;21562;49.476;6.086;2023-04-03T16:03:22;12.50;87.30
35445;DHT22;21562;49.476;6.086;2023-04-03T16:05:49;12.60;88.10
35445;DHT22;21562;49.476;6.086;2023-04-03T16:08:15;12.70;89.80
35445;DHT22;21562;49.476;6.086;2023-04-03T16:10:43;13.10;88.20
35445;DHT22;21562;49.476;6.086;2023-04-03T16:13:10;13.30;87.70
35445;DHT22;21562;49.476;6.086;2023-04-03T16:15:36;13.50;87.50
35445;DHT22;21562;49.476;6.086;2023-04-03T16:18:02;13.60;87.30
35445;DHT22;21562;49.476;6.086;2023-04-03T16:20:28;13.70;87.20
35445;DHT22;21562;49.476;6.086;2023-04-03T16:22:56;13.20;88.30
35445;DHT22;21562;49.476;6.086;2023-04-03T16:25:22;13.30;87.90
35445;DHT22;21562;49.476;6.086;2023-04-03T16:27:48;12.70;87.10
35445;DHT22;21562;49.476;6.086;2023-04-03T16:30:13;12.30;88.80
35445;DHT22;21562;49.476;6.086;2023-04-03T16:32:40;12.60;88.50
35445;DHT22;21562;49.476;6.086;2023-04-03T16:35:06;12.90;89.90
35445;DHT22;21562;49.476;6.086;2023-04-03T16:37:32;13.00;90.00
35445;DHT22;21562;49.476;6.086;2023-04-03T16:39:57;13.40;87.80
35445;DHT22;21562;49.476;6.086;2023-04-03T16:42:24;13.40;87.70
35445;DHT22;21562;49.476;6.086;2023-04-03T16:44:50;13.40;86.60
35445;DHT22;21562;49.476;6.086;2023-04-03T16:47:16;12.60;86.50
35445;DHT22;21562;49.476;6.086;2023-04-03T16:49:45;12.10;86.80
35445;DHT22;21562;49.476;6.086;2023-04-03T16:52:11;12.10;86.70
35445;DHT22;21562;49.476;6.086;2023-04-03T16:54:36;12.00;87.10
35445;DHT22;21562;49.476;6.086;2023-04-03T16:57:02;11.90;89.00
35445;DHT22;21562;49.476;6.086;2023-04-03T16:59:28;12.30;88.60
35445;DHT22;21562;49.476;6.086;2023-04-03T17:01:54;12.60;88.50
35445;DHT22;21562;49.476;6.086;2023-04-03T17:04:19;12.80;87.60
35445;DHT22;21562;49.476;6.086;2023-04-03T17:06:45;12.70;87.60
35445;DHT22;21562;49.476;6.086;2023-04-03T17:09:11;12.80;87.60
35445;DHT22;21562;49.476;6.086;2023-04-03T17:11:37;12.60;88.00
35445;DHT22;21562;49.476;6.086;2023-04-03T17:14:03;12.90;85.50
35445;DHT22;21562;49.476;6.086;2023-04-03T17:16:31;12.60;87.00
35445;DHT22;21562;49.476;6.086;2023-04-03T17:18:58;12.40;87.00
35445;DHT22;21562;49.476;6.086;2023-04-03T17:21:24;12.20;86.50
35445;DHT22;21562;49.476;6.086;2023-04-03T17:23:54;12.10;87.10
35445;DHT22;21562;49.476;6.086;2023-04-03T17:26:23;12.00;87.80
35445;DHT22;21562;49.476;6.086;2023-04-03T17:28:48;12.00;87.40
35445;DHT22;21562;49.476;6.086;2023-04-03T17:31:14;12.20;88.30
35445;DHT22;21562;49.476;6.086;2023-04-03T17:33:40;12.10;89.10
35445;DHT22;21562;49.476;6.086;2023-04-03T17:36:06;12.20;87.50